Dyess Air Force Base
KDYS : now visible

Airfield :











YOU CAN JOIN US ON...

 
LOGIN :

Register | Disclaimer

   EN    FR    IT 

 









Legend :    VFR   Marginal VFR   IFR   Intensive IFR   Very Intensive IFR
Visi :
Ceiling :
>= 8 km
>= 3000ft
5 to 8 km
1000 to 3000 ft
1500m to 5 km
500 to 1000 ft
800 to 1500m
200 to 500 ft
< 800m
< 200 ft
Symbols :   Thunderstorms  Fog  Heavy snow  Heavy precipitations  Wind > 20 kt






- Airport Elevation : 1789 ft


KDYS - Dyess Air Force Base

CURRENT METAR :
  • 191641Z AUTO 01004KT 10SM OVC021 04/M03 A3033 RMK AO2 SLP274 TSNO $

EXPIRED METARs :
  • 191611Z AUTO 35006KT 10SM OVC022 04/M04 A3033 RMK AO2 SLP274 TSNO $
  • 191556Z AUTO 36007KT 10SM OVC021 03/M04 A3033 RMK AO2 SLP274 T00321038 TSNO $
  • 191456Z AUTO 34007KT 10SM OVC021 03/M04 A3033 RMK AO2 SLP274 T00251040 52011 TSNO $
  • 191356Z AUTO 34007KT 10SM OVC021 02/M04 A3032 RMK AO2 SLP273 T00231040 TSNO $

TAF TAF KDYS
Valid from the 19 at 09:00 until the 20 at 15:00 UTC


190900Z 1909/2015 03009KT 9999 FEW100 QNH3024INS
BECMG 1911/1912 03009KT 9999 BKN030 QNH3024INS
BECMG 1914/1915 03009KT 9999 OVC025 QNH3028INS
BECMG 1917/1918 05009KT 9999 OVC015 QNH3019INS
BECMG 1921/1922 01009KT 9000 -RA OVC010 QNH3015INS
BECMG 1923/1924 01009KT 8000 -RA BR OVC007 QNH3015INS
BECMG 2004/2005 02006KT 9000 BR OVC005 QNH3025INS TX05/2001Z TN03/1912Z



MET'MAP, your aeronautical weather chart ! - Copyright ORBIFLY December 2007 - Disclaimer

ORBIFLY MET'MAP TEAM :

Programming & Development : Alexandra Zaïnal
Concept & original design : Baudouin d'Aumeries
Assistance for programming : Marc-Olivier Méhu
Technical & hardware support : Manuel Goepfert

Contact : metmap@orbifly.com




SOURCES & CREDITS :

   NOAA       Earth
Advisory